sensor_id;sensor_type;location;lat;lon;timestamp;temperature;humidity
8539;DHT22;4307;53.868;11.680;2022-08-19T00:00:35;21.10;99.90
8539;DHT22;4307;53.868;11.680;2022-08-19T00:03:03;21.20;99.90
8539;DHT22;4307;53.868;11.680;2022-08-19T00:05:30;21.20;99.90
8539;DHT22;4307;53.868;11.680;2022-08-19T00:07:57;21.20;99.90
8539;DHT22;4307;53.868;11.680;2022-08-19T00:10:24;21.30;99.90
8539;DHT22;4307;53.868;11.680;2022-08-19T00:12:51;21.30;99.90
8539;DHT22;4307;53.868;11.680;2022-08-19T00:15:20;21.30;99.90
8539;DHT22;4307;53.868;11.680;2022-08-19T00:17:48;21.30;99.90
8539;DHT22;4307;53.868;11.680;2022-08-19T00:20:19;21.40;99.90
8539;DHT22;4307;53.868;11.680;2022-08-19T00:22:47;21.40;99.90
8539;DHT22;4307;53.868;11.680;2022-08-19T00:25:15;21.40;99.90
8539;DHT22;4307;53.868;11.680;2022-08-19T00:27:42;21.50;99.90
8539;DHT22;4307;53.868;11.680;2022-08-19T00:30:09;21.50;99.90
8539;DHT22;4307;53.868;11.680;2022-08-19T00:32:38;21.50;99.90
8539;DHT22;4307;53.868;11.680;2022-08-19T00:35:06;21.60;99.90
8539;DHT22;4307;53.868;11.680;2022-08-19T00:37:34;21.60;99.90
8539;DHT22;4307;53.868;11.680;2022-08-19T00:40:04;21.60;99.90
8539;DHT22;4307;53.868;11.680;2022-08-19T00:42:31;21.60;99.90
8539;DHT22;4307;53.868;11.680;2022-08-19T00:44:58;21.60;99.90
8539;DHT22;4307;53.868;11.680;2022-08-19T00:47:25;21.60;99.90
8539;DHT22;4307;53.868;11.680;2022-08-19T00:49:55;21.60;99.90
8539;DHT22;4307;53.868;11.680;2022-08-19T00:52:24;21.60;99.90
8539;DHT22;4307;53.868;11.680;2022-08-19T00:54:56;21.60;99.90
8539;DHT22;4307;53.868;11.680;2022-08-19T00:57:28;21.60;99.90
8539;DHT22;4307;53.868;11.680;2022-08-19T00:59:58;21.60;99.90
8539;DHT22;4307;53.868;11.680;2022-08-19T01:02:26;21.60;99.90
8539;DHT22;4307;53.868;11.680;2022-08-19T01:04:53;21.60;99.90
8539;DHT22;4307;53.868;11.680;2022-08-19T01:07:20;21.70;99.90
8539;DHT22;4307;53.868;11.680;2022-08-19T01:09:47;21.70;99.90
8539;DHT22;4307;53.868;11.680;2022-08-19T01:12:15;21.60;99.90
8539;DHT22;4307;53.868;11.680;2022-08-19T01:14:42;21.60;99.90
8539;DHT22;4307;53.868;11.680;2022-08-19T01:17:09;21.70;99.90
8539;DHT22;4307;53.868;11.680;2022-08-19T01:19:39;21.70;99.90
8539;DHT22;4307;53.868;11.680;2022-08-19T01:22:10;21.70;99.90
8539;DHT22;4307;53.868;11.680;2022-08-19T01:24:39;21.70;99.90
8539;DHT22;4307;53.868;11.680;2022-08-19T01:27:07;21.70;99.90
8539;DHT22;4307;53.868;11.680;2022-08-19T01:29:38;21.70;99.90
8539;DHT22;4307;53.868;11.680;2022-08-19T01:32:05;21.70;99.90
8539;DHT22;4307;53.868;11.680;2022-08-19T01:34:32;21.80;99.90
8539;DHT22;4307;53.868;11.680;2022-08-19T01:36:59;21.80;99.90
8539;DHT22;4307;53.868;11.680;2022-08-19T01:39:27;21.80;99.90
8539;DHT22;4307;53.868;11.680;2022-08-19T01:41:55;21.80;99.90
8539;DHT22;4307;53.868;11.680;2022-08-19T01:44:22;21.80;99.90
8539;DHT22;4307;53.868;11.680;2022-08-19T01:46:51;21.80;99.90
8539;DHT22;4307;53.868;11.680;2022-08-19T01:49:20;21.90;99.90
8539;DHT22;4307;53.868;11.680;2022-08-19T01:51:48;21.90;99.90
8539;DHT22;4307;53.868;11.680;2022-08-19T01:54:16;21.90;99.90
8539;DHT22;4307;53.868;11.680;2022-08-19T01:56:42;21.90;99.90
8539;DHT22;4307;53.868;11.680;2022-08-19T01:59:13;21.90;99.90
8539;DHT22;4307;53.868;11.680;2022-08-19T02:01:40;21.90;99.90
8539;DHT22;4307;53.868;11.680;2022-08-19T02:04:07;21.90;99.90
8539;DHT22;4307;53.868;11.680;2022-08-19T02:06:34;21.90;99.90
8539;DHT22;4307;53.868;11.680;2022-08-19T02:09:02;21.90;99.90
8539;DHT22;4307;53.868;11.680;2022-08-19T02:11:30;21.90;99.90
8539;DHT22;4307;53.868;11.680;2022-08-19T02:13:59;21.90;99.90
8539;DHT22;4307;53.868;11.680;2022-08-19T02:16:28;21.90;99.90
8539;DHT22;4307;53.868;11.680;2022-08-19T02:18:55;21.90;99.90
8539;DHT22;4307;53.868;11.680;2022-08-19T02:21:23;21.90;99.90
8539;DHT22;4307;53.868;11.680;2022-08-19T02:23:50;21.90;99.90
8539;DHT22;4307;53.868;11.680;2022-08-19T02:26:17;21.80;99.90
8539;DHT22;4307;53.868;11.680;2022-08-19T02:28:45;21.80;99.90
8539;DHT22;4307;53.868;11.680;2022-08-19T02:31:14;21.80;99.90
8539;DHT22;4307;53.868;11.680;2022-08-19T02:33:44;21.80;99.90
8539;DHT22;4307;53.868;11.680;2022-08-19T02:36:12;21.70;99.90
8539;DHT22;4307;53.868;11.680;2022-08-19T02:38:39;21.70;99.90
8539;DHT22;4307;53.868;11.680;2022-08-19T02:41:12;21.70;99.90
8539;DHT22;4307;53.868;11.680;2022-08-19T02:43:39;21.70;99.90
8539;DHT22;4307;53.868;11.680;2022-08-19T02:46:13;21.70;99.90
8539;DHT22;4307;53.868;11.680;2022-08-19T02:48:39;21.70;99.90
8539;DHT22;4307;53.868;11.680;2022-08-19T02:51:08;21.70;99.90
8539;DHT22;4307;53.868;11.680;2022-08-19T02:53:34;21.70;99.90
8539;DHT22;4307;53.868;11.680;2022-08-19T02:56:06;21.60;99.90
8539;DHT22;4307;53.868;11.680;2022-08-19T02:58:33;21.60;99.90
8539;DHT22;4307;53.868;11.680;2022-08-19T03:00:59;21.60;99.90
8539;DHT22;4307;53.868;11.680;2022-08-19T03:03:26;21.60;99.90
8539;DHT22;4307;53.868;11.680;2022-08-19T03:06:04;21.60;99.90
8539;DHT22;4307;53.868;11.680;2022-08-19T03:08:32;21.70;99.90
8539;DHT22;4307;53.868;11.680;2022-08-19T03:10:58;21.70;99.90
8539;DHT22;4307;53.868;11.680;2022-08-19T03:13:25;21.70;99.90
8539;DHT22;4307;53.868;11.680;2022-08-19T03:15:53;21.70;99.90
8539;DHT22;4307;53.868;11.680;2022-08-19T03:18:20;21.70;99.90
8539;DHT22;4307;53.868;11.680;2022-08-19T03:20:49;21.70;99.90
8539;DHT22;4307;53.868;11.680;2022-08-19T03:23:18;21.70;99.90
8539;DHT22;4307;53.868;11.680;2022-08-19T03:25:47;21.70;99.90
8539;DHT22;4307;53.868;11.680;2022-08-19T03:28:15;21.70;99.90
8539;DHT22;4307;53.868;11.680;2022-08-19T03:30:53;21.60;99.90
8539;DHT22;4307;53.868;11.680;2022-08-19T03:33:22;21.60;99.90
8539;DHT22;4307;53.868;11.680;2022-08-19T03:35:59;21.60;99.90
8539;DHT22;4307;53.868;11.680;2022-08-19T03:38:26;21.50;99.90
8539;DHT22;4307;53.868;11.680;2022-08-19T03:40:54;21.50;99.90
8539;DHT22;4307;53.868;11.680;2022-08-19T03:43:21;21.40;99.90
8539;DHT22;4307;53.868;11.680;2022-08-19T03:45:47;21.40;99.90
8539;DHT22;4307;53.868;11.680;2022-08-19T03:48:15;21.40;99.90
8539;DHT22;4307;53.868;11.680;2022-08-19T03:50:42;21.40;99.90
8539;DHT22;4307;53.868;11.680;2022-08-19T03:53:08;21.40;99.90
8539;DHT22;4307;53.868;11.680;2022-08-19T03:55:39;21.40;99.90
8539;DHT22;4307;53.868;11.680;2022-08-19T03:58:08;21.40;99.90
8539;DHT22;4307;53.868;11.680;2022-08-19T04:00:36;21.40;99.90
8539;DHT22;4307;53.868;11.680;2022-08-19T04:03:03;21.40;99.90
8539;DHT22;4307;53.868;11.680;2022-08-19T04:05:29;21.40;99.90
8539;DHT22;4307;53.868;11.680;2022-08-19T04:07:56;21.40;99.90
8539;DHT22;4307;53.868;11.680;2022-08-19T04:10:24;21.50;99.90
8539;DHT22;4307;53.868;11.680;2022-08-19T04:12:51;21.50;99.90
8539;DHT22;4307;53.868;11.680;2022-08-19T04:15:19;21.50;99.90
8539;DHT22;4307;53.868;11.680;2022-08-19T04:17:46;21.50;99.90
8539;DHT22;4307;53.868;11.680;2022-08-19T04:20:13;21.50;99.90
8539;DHT22;4307;53.868;11.680;2022-08-19T04:22:39;21.50;99.90
8539;DHT22;4307;53.868;11.680;2022-08-19T04:25:06;21.50;99.90
8539;DHT22;4307;53.868;11.680;2022-08-19T04:27:33;21.60;99.90
8539;DHT22;4307;53.868;11.680;2022-08-19T04:29:59;21.60;99.90
8539;DHT22;4307;53.868;11.680;2022-08-19T04:32:27;21.60;99.90
8539;DHT22;4307;53.868;11.680;2022-08-19T04:34:57;21.60;99.90
8539;DHT22;4307;53.868;11.680;2022-08-19T04:37:25;21.60;99.90
8539;DHT22;4307;53.868;11.680;2022-08-19T04:39:52;21.60;99.90
8539;DHT22;4307;53.868;11.680;2022-08-19T04:42:36;21.70;99.90
8539;DHT22;4307;53.868;11.680;2022-08-19T04:45:07;21.70;99.90
8539;DHT22;4307;53.868;11.680;2022-08-19T04:47:36;21.70;99.90
8539;DHT22;4307;53.868;11.680;2022-08-19T04:50:05;21.60;99.90
8539;DHT22;4307;53.868;11.680;2022-08-19T04:52:32;21.70;99.90
8539;DHT22;4307;53.868;11.680;2022-08-19T04:54:59;21.70;99.90
8539;DHT22;4307;53.868;11.680;2022-08-19T04:57:26;21.70;99.90
8539;DHT22;4307;53.868;11.680;2022-08-19T04:59:53;21.70;99.90
8539;DHT22;4307;53.868;11.680;2022-08-19T05:02:20;21.80;99.90
8539;DHT22;4307;53.868;11.680;2022-08-19T05:04:51;21.80;99.90
8539;DHT22;4307;53.868;11.680;2022-08-19T05:07:22;21.80;99.90
8539;DHT22;4307;53.868;11.680;2022-08-19T05:09:49;21.80;99.90
8539;DHT22;4307;53.868;11.680;2022-08-19T05:12:15;21.80;99.90
8539;DHT22;4307;53.868;11.680;2022-08-19T05:14:42;21.80;99.90
8539;DHT22;4307;53.868;11.680;2022-08-19T05:17:11;21.80;99.90
8539;DHT22;4307;53.868;11.680;2022-08-19T05:19:38;21.80;99.90
8539;DHT22;4307;53.868;11.680;2022-08-19T05:22:24;21.80;99.90
8539;DHT22;4307;53.868;11.680;2022-08-19T05:25:03;21.80;99.90
8539;DHT22;4307;53.868;11.680;2022-08-19T05:27:30;21.80;99.90
8539;DHT22;4307;53.868;11.680;2022-08-19T05:29:57;21.90;99.90
8539;DHT22;4307;53.868;11.680;2022-08-19T05:32:24;21.80;99.90
8539;DHT22;4307;53.868;11.680;2022-08-19T05:34:50;21.90;99.90
8539;DHT22;4307;53.868;11.680;2022-08-19T05:37:17;21.80;99.90
8539;DHT22;4307;53.868;11.680;2022-08-19T05:39:45;21.80;99.90
8539;DHT22;4307;53.868;11.680;2022-08-19T05:42:12;21.80;99.90
8539;DHT22;4307;53.868;11.680;2022-08-19T05:44:41;21.80;99.90
8539;DHT22;4307;53.868;11.680;2022-08-19T05:47:10;21.80;99.90
8539;DHT22;4307;53.868;11.680;2022-08-19T05:49:38;21.80;99.90
8539;DHT22;4307;53.868;11.680;2022-08-19T05:52:06;21.70;99.90
8539;DHT22;4307;53.868;11.680;2022-08-19T05:54:34;21.70;99.90
8539;DHT22;4307;53.868;11.680;2022-08-19T05:57:02;21.70;99.90
8539;DHT22;4307;53.868;11.680;2022-08-19T05:59:29;21.80;99.90
8539;DHT22;4307;53.868;11.680;2022-08-19T06:01:56;21.80;99.90
8539;DHT22;4307;53.868;11.680;2022-08-19T06:04:23;21.80;99.90
8539;DHT22;4307;53.868;11.680;2022-08-19T06:06:52;21.90;99.90
8539;DHT22;4307;53.868;11.680;2022-08-19T06:09:20;21.90;99.90
8539;DHT22;4307;53.868;11.680;2022-08-19T06:11:48;21.90;99.90
8539;DHT22;4307;53.868;11.680;2022-08-19T06:14:27;22.00;99.90
8539;DHT22;4307;53.868;11.680;2022-08-19T06:16:55;22.00;99.90
8539;DHT22;4307;53.868;11.680;2022-08-19T06:19:22;22.00;99.90
8539;DHT22;4307;53.868;11.680;2022-08-19T06:21:51;22.00;99.90
8539;DHT22;4307;53.868;11.680;2022-08-19T06:24:20;22.00;99.90
8539;DHT22;4307;53.868;11.680;2022-08-19T06:26:50;22.00;99.90
8539;DHT22;4307;53.868;11.680;2022-08-19T06:29:20;22.00;99.90
8539;DHT22;4307;53.868;11.680;2022-08-19T06:31:50;22.00;99.90
8539;DHT22;4307;53.868;11.680;2022-08-19T06:34:18;22.00;99.90
8539;DHT22;4307;53.868;11.680;2022-08-19T06:36:47;22.00;99.90
8539;DHT22;4307;53.868;11.680;2022-08-19T06:39:16;22.00;99.90
8539;DHT22;4307;53.868;11.680;2022-08-19T06:41:47;22.10;99.90
8539;DHT22;4307;53.868;11.680;2022-08-19T06:44:14;22.10;99.90
8539;DHT22;4307;53.868;11.680;2022-08-19T06:46:43;22.10;99.90
8539;DHT22;4307;53.868;11.680;2022-08-19T06:49:10;22.10;99.90
8539;DHT22;4307;53.868;11.680;2022-08-19T06:51:40;22.10;99.90
8539;DHT22;4307;53.868;11.680;2022-08-19T06:54:07;22.20;99.90
8539;DHT22;4307;53.868;11.680;2022-08-19T06:56:34;22.20;99.90
8539;DHT22;4307;53.868;11.680;2022-08-19T06:59:03;22.20;99.90
8539;DHT22;4307;53.868;11.680;2022-08-19T07:01:30;22.30;99.90
8539;DHT22;4307;53.868;11.680;2022-08-19T07:03:58;22.30;99.90
8539;DHT22;4307;53.868;11.680;2022-08-19T07:06:26;22.30;99.90
8539;DHT22;4307;53.868;11.680;2022-08-19T07:08:53;22.30;99.90
8539;DHT22;4307;53.868;11.680;2022-08-19T07:11:20;22.30;99.90
8539;DHT22;4307;53.868;11.680;2022-08-19T07:13:46;22.30;99.90
8539;DHT22;4307;53.868;11.680;2022-08-19T07:16:16;22.30;99.90
8539;DHT22;4307;53.868;11.680;2022-08-19T07:18:44;22.30;99.90
8539;DHT22;4307;53.868;11.680;2022-08-19T07:21:14;22.40;99.90
8539;DHT22;4307;53.868;11.680;2022-08-19T07:23:42;22.40;99.90
8539;DHT22;4307;53.868;11.680;2022-08-19T07:26:10;22.40;99.90
8539;DHT22;4307;53.868;11.680;2022-08-19T07:28:37;22.40;99.90
8539;DHT22;4307;53.868;11.680;2022-08-19T07:31:05;22.40;99.90
8539;DHT22;4307;53.868;11.680;2022-08-19T07:33:32;22.40;99.90
8539;DHT22;4307;53.868;11.680;2022-08-19T07:36:03;22.40;99.90
8539;DHT22;4307;53.868;11.680;2022-08-19T07:38:31;22.40;99.90
8539;DHT22;4307;53.868;11.680;2022-08-19T07:40:59;22.40;99.90
8539;DHT22;4307;53.868;11.680;2022-08-19T07:43:26;22.40;99.90
8539;DHT22;4307;53.868;11.680;2022-08-19T07:45:54;22.40;99.90
8539;DHT22;4307;53.868;11.680;2022-08-19T07:48:22;22.30;99.90
8539;DHT22;4307;53.868;11.680;2022-08-19T07:50:51;22.30;99.90
8539;DHT22;4307;53.868;11.680;2022-08-19T07:53:17;22.30;99.90
8539;DHT22;4307;53.868;11.680;2022-08-19T07:55:46;22.30;99.90
8539;DHT22;4307;53.868;11.680;2022-08-19T07:58:15;22.30;99.90
8539;DHT22;4307;53.868;11.680;2022-08-19T08:00:42;22.30;99.90
8539;DHT22;4307;53.868;11.680;2022-08-19T08:03:09;22.30;99.90
8539;DHT22;4307;53.868;11.680;2022-08-19T08:05:35;22.30;99.90
8539;DHT22;4307;53.868;11.680;2022-08-19T08:08:20;22.30;99.90
8539;DHT22;4307;53.868;11.680;2022-08-19T08:11:05;22.40;99.90
8539;DHT22;4307;53.868;11.680;2022-08-19T08:13:32;22.40;99.90
8539;DHT22;4307;53.868;11.680;2022-08-19T08:16:00;22.40;99.90
8539;DHT22;4307;53.868;11.680;2022-08-19T08:18:27;22.40;99.90
8539;DHT22;4307;53.868;11.680;2022-08-19T08:20:54;22.40;99.90
8539;DHT22;4307;53.868;11.680;2022-08-19T08:23:21;22.40;99.90
8539;DHT22;4307;53.868;11.680;2022-08-19T08:25:51;22.40;99.90
8539;DHT22;4307;53.868;11.680;2022-08-19T08:28:20;22.50;99.90
8539;DHT22;4307;53.868;11.680;2022-08-19T08:30:47;22.50;99.90
8539;DHT22;4307;53.868;11.680;2022-08-19T08:33:17;22.50;99.90
8539;DHT22;4307;53.868;11.680;2022-08-19T08:35:44;22.50;99.90
8539;DHT22;4307;53.868;11.680;2022-08-19T08:38:12;22.40;99.90
8539;DHT22;4307;53.868;11.680;2022-08-19T08:40:44;22.40;99.90
8539;DHT22;4307;53.868;11.680;2022-08-19T08:43:22;22.50;99.90
8539;DHT22;4307;53.868;11.680;2022-08-19T08:45:55;22.50;99.90
8539;DHT22;4307;53.868;11.680;2022-08-19T08:48:24;22.50;99.90
8539;DHT22;4307;53.868;11.680;2022-08-19T08:50:54;22.50;99.90
8539;DHT22;4307;53.868;11.680;2022-08-19T08:53:23;22.40;99.90
8539;DHT22;4307;53.868;11.680;2022-08-19T08:55:50;22.40;99.90
8539;DHT22;4307;53.868;11.680;2022-08-19T08:58:24;22.40;99.90
8539;DHT22;4307;53.868;11.680;2022-08-19T09:00:52;22.50;99.90
8539;DHT22;4307;53.868;11.680;2022-08-19T09:03:21;22.50;99.90
8539;DHT22;4307;53.868;11.680;2022-08-19T09:05:58;22.50;99.90
8539;DHT22;4307;53.868;11.680;2022-08-19T09:08:35;22.50;99.90
8539;DHT22;4307;53.868;11.680;2022-08-19T09:11:06;22.50;99.90
8539;DHT22;4307;53.868;11.680;2022-08-19T09:13:41;22.50;99.90
8539;DHT22;4307;53.868;11.680;2022-08-19T09:16:11;22.50;99.90
8539;DHT22;4307;53.868;11.680;2022-08-19T09:18:41;22.50;99.90
8539;DHT22;4307;53.868;11.680;2022-08-19T09:21:09;22.60;99.90
8539;DHT22;4307;53.868;11.680;2022-08-19T09:23:36;22.60;99.90
8539;DHT22;4307;53.868;11.680;2022-08-19T09:26:07;22.60;99.90
8539;DHT22;4307;53.868;11.680;2022-08-19T09:28:35;22.60;99.90
8539;DHT22;4307;53.868;11.680;2022-08-19T09:31:03;22.70;99.90
8539;DHT22;4307;53.868;11.680;2022-08-19T09:33:29;22.70;99.90
8539;DHT22;4307;53.868;11.680;2022-08-19T09:36:07;22.80;99.90
8539;DHT22;4307;53.868;11.680;2022-08-19T09:38:35;22.80;99.90
8539;DHT22;4307;53.868;11.680;2022-08-19T09:41:04;22.80;99.90
8539;DHT22;4307;53.868;11.680;2022-08-19T09:43:31;22.70;99.90
8539;DHT22;4307;53.868;11.680;2022-08-19T09:46:00;22.70;99.90
8539;DHT22;4307;53.868;11.680;2022-08-19T09:48:26;22.70;99.90
8539;DHT22;4307;53.868;11.680;2022-08-19T09:50:53;22.70;99.90
8539;DHT22;4307;53.868;11.680;2022-08-19T09:53:20;22.70;99.90
8539;DHT22;4307;53.868;11.680;2022-08-19T09:55:48;22.70;99.90
8539;DHT22;4307;53.868;11.680;2022-08-19T09:58:15;22.70;99.90
8539;DHT22;4307;53.868;11.680;2022-08-19T10:00:42;22.70;99.90
8539;DHT22;4307;53.868;11.680;2022-08-19T10:03:09;22.70;99.90
8539;DHT22;4307;53.868;11.680;2022-08-19T10:05:36;22.80;99.90
8539;DHT22;4307;53.868;11.680;2022-08-19T10:08:16;22.80;99.90
8539;DHT22;4307;53.868;11.680;2022-08-19T10:10:44;22.80;99.90
8539;DHT22;4307;53.868;11.680;2022-08-19T10:13:11;22.80;99.90
8539;DHT22;4307;53.868;11.680;2022-08-19T10:15:38;22.80;99.90
8539;DHT22;4307;53.868;11.680;2022-08-19T10:18:06;22.70;99.90
8539;DHT22;4307;53.868;11.680;2022-08-19T10:20:34;22.70;99.90
8539;DHT22;4307;53.868;11.680;2022-08-19T10:23:02;22.80;99.90
8539;DHT22;4307;53.868;11.680;2022-08-19T10:25:29;22.80;99.90
8539;DHT22;4307;53.868;11.680;2022-08-19T10:27:56;22.80;99.90
8539;DHT22;4307;53.868;11.680;2022-08-19T10:30:22;22.80;99.90
8539;DHT22;4307;53.868;11.680;2022-08-19T10:32:49;22.80;99.90
8539;DHT22;4307;53.868;11.680;2022-08-19T10:35:16;22.80;99.90
8539;DHT22;4307;53.868;11.680;2022-08-19T10:37:44;22.90;99.90
8539;DHT22;4307;53.868;11.680;2022-08-19T10:40:11;22.90;99.90
8539;DHT22;4307;53.868;11.680;2022-08-19T10:42:38;22.90;99.90
8539;DHT22;4307;53.868;11.680;2022-08-19T10:45:05;23.00;99.90
8539;DHT22;4307;53.868;11.680;2022-08-19T10:47:33;23.00;99.90
8539;DHT22;4307;53.868;11.680;2022-08-19T10:50:00;23.00;99.90
8539;DHT22;4307;53.868;11.680;2022-08-19T10:52:47;23.00;99.90
8539;DHT22;4307;53.868;11.680;2022-08-19T10:55:15;23.00;99.90
8539;DHT22;4307;53.868;11.680;2022-08-19T10:57:59;23.10;99.90
8539;DHT22;4307;53.868;11.680;2022-08-19T11:00:26;23.20;99.90
8539;DHT22;4307;53.868;11.680;2022-08-19T11:02:53;23.20;99.90
8539;DHT22;4307;53.868;11.680;2022-08-19T11:05:21;23.20;99.90
8539;DHT22;4307;53.868;11.680;2022-08-19T11:07:49;23.20;99.90
8539;DHT22;4307;53.868;11.680;2022-08-19T11:10:15;23.30;99.90
8539;DHT22;4307;53.868;11.680;2022-08-19T11:12:44;23.30;99.90
8539;DHT22;4307;53.868;11.680;2022-08-19T11:15:11;23.30;99.90
8539;DHT22;4307;53.868;11.680;2022-08-19T11:17:38;23.30;99.90
8539;DHT22;4307;53.868;11.680;2022-08-19T11:20:09;23.40;99.90
8539;DHT22;4307;53.868;11.680;2022-08-19T11:22:36;23.30;99.90
8539;DHT22;4307;53.868;11.680;2022-08-19T11:25:05;23.40;99.90
8539;DHT22;4307;53.868;11.680;2022-08-19T11:27:32;23.40;99.90
8539;DHT22;4307;53.868;11.680;2022-08-19T11:29:59;23.40;99.90
8539;DHT22;4307;53.868;11.680;2022-08-19T11:32:26;23.40;99.90
8539;DHT22;4307;53.868;11.680;2022-08-19T11:34:52;23.40;99.90
8539;DHT22;4307;53.868;11.680;2022-08-19T11:37:19;23.50;99.90
8539;DHT22;4307;53.868;11.680;2022-08-19T11:39:46;23.50;99.90
8539;DHT22;4307;53.868;11.680;2022-08-19T11:42:14;23.60;99.90
8539;DHT22;4307;53.868;11.680;2022-08-19T11:44:58;23.60;99.90
8539;DHT22;4307;53.868;11.680;2022-08-19T11:47:25;23.70;99.90
8539;DHT22;4307;53.868;11.680;2022-08-19T11:49:51;23.70;99.90
8539;DHT22;4307;53.868;11.680;2022-08-19T11:52:18;23.70;99.90
8539;DHT22;4307;53.868;11.680;2022-08-19T11:54:45;23.70;99.90
8539;DHT22;4307;53.868;11.680;2022-08-19T11:57:12;23.70;99.90
8539;DHT22;4307;53.868;11.680;2022-08-19T11:59:48;23.80;99.90
8539;DHT22;4307;53.868;11.680;2022-08-19T12:02:14;23.80;99.90
8539;DHT22;4307;53.868;11.680;2022-08-19T12:04:41;23.80;99.90
8539;DHT22;4307;53.868;11.680;2022-08-19T12:07:08;23.80;99.90
8539;DHT22;4307;53.868;11.680;2022-08-19T12:09:34;23.80;99.90
8539;DHT22;4307;53.868;11.680;2022-08-19T12:12:01;23.90;99.90
8539;DHT22;4307;53.868;11.680;2022-08-19T12:14:28;23.90;99.90
8539;DHT22;4307;53.868;11.680;2022-08-19T12:16:57;23.90;99.90
8539;DHT22;4307;53.868;11.680;2022-08-19T12:19:25;24.00;99.90
8539;DHT22;4307;53.868;11.680;2022-08-19T12:21:52;24.00;99.90
8539;DHT22;4307;53.868;11.680;2022-08-19T12:24:20;24.00;99.90
8539;DHT22;4307;53.868;11.680;2022-08-19T12:26:48;24.10;99.90
8539;DHT22;4307;53.868;11.680;2022-08-19T12:29:15;24.20;99.90
8539;DHT22;4307;53.868;11.680;2022-08-19T12:31:42;24.20;99.90
8539;DHT22;4307;53.868;11.680;2022-08-19T12:34:10;24.20;99.90
8539;DHT22;4307;53.868;11.680;2022-08-19T12:36:37;24.20;99.90
8539;DHT22;4307;53.868;11.680;2022-08-19T12:39:04;24.20;99.90
8539;DHT22;4307;53.868;11.680;2022-08-19T12:41:31;24.30;99.90
8539;DHT22;4307;53.868;11.680;2022-08-19T12:43:58;24.30;99.90
8539;DHT22;4307;53.868;11.680;2022-08-19T12:46:25;24.40;99.90
8539;DHT22;4307;53.868;11.680;2022-08-19T12:48:52;24.40;99.90
8539;DHT22;4307;53.868;11.680;2022-08-19T12:51:21;24.40;99.90
8539;DHT22;4307;53.868;11.680;2022-08-19T12:53:48;24.40;99.90
8539;DHT22;4307;53.868;11.680;2022-08-19T12:56:15;24.40;99.90
8539;DHT22;4307;53.868;11.680;2022-08-19T12:58:42;24.40;99.90
8539;DHT22;4307;53.868;11.680;2022-08-19T13:01:11;24.30;99.90
8539;DHT22;4307;53.868;11.680;2022-08-19T13:03:39;24.30;99.90
8539;DHT22;4307;53.868;11.680;2022-08-19T13:06:06;24.20;99.90
8539;DHT22;4307;53.868;11.680;2022-08-19T13:08:35;24.20;99.90
8539;DHT22;4307;53.868;11.680;2022-08-19T13:11:08;24.20;99.90
8539;DHT22;4307;53.868;11.680;2022-08-19T13:13:37;24.20;99.90
8539;DHT22;4307;53.868;11.680;2022-08-19T13:16:06;24.20;99.90
8539;DHT22;4307;53.868;11.680;2022-08-19T13:18:33;24.20;99.90
8539;DHT22;4307;53.868;11.680;2022-08-19T13:21:02;24.10;99.90
8539;DHT22;4307;53.868;11.680;2022-08-19T13:23:29;24.10;99.90
8539;DHT22;4307;53.868;11.680;2022-08-19T13:25:59;24.10;99.90
8539;DHT22;4307;53.868;11.680;2022-08-19T13:28:27;24.10;99.90
8539;DHT22;4307;53.868;11.680;2022-08-19T13:31:16;24.10;99.90
8539;DHT22;4307;53.868;11.680;2022-08-19T13:34:01;24.20;99.90
8539;DHT22;4307;53.868;11.680;2022-08-19T13:36:27;24.20;99.90
8539;DHT22;4307;53.868;11.680;2022-08-19T13:38:54;24.20;99.90
8539;DHT22;4307;53.868;11.680;2022-08-19T13:41:24;24.20;99.90
8539;DHT22;4307;53.868;11.680;2022-08-19T13:43:51;24.30;99.90
8539;DHT22;4307;53.868;11.680;2022-08-19T13:46:17;24.30;99.90
8539;DHT22;4307;53.868;11.680;2022-08-19T13:48:45;24.30;99.90
8539;DHT22;4307;53.868;11.680;2022-08-19T13:51:12;24.40;99.90
8539;DHT22;4307;53.868;11.680;2022-08-19T13:53:42;24.40;99.90
8539;DHT22;4307;53.868;11.680;2022-08-19T13:56:11;24.40;99.90
8539;DHT22;4307;53.868;11.680;2022-08-19T13:58:39;24.40;99.90
8539;DHT22;4307;53.868;11.680;2022-08-19T14:01:06;24.50;99.90
8539;DHT22;4307;53.868;11.680;2022-08-19T14:03:34;24.50;99.90
8539;DHT22;4307;53.868;11.680;2022-08-19T14:06:01;24.50;99.90
8539;DHT22;4307;53.868;11.680;2022-08-19T14:08:29;24.60;99.90
8539;DHT22;4307;53.868;11.680;2022-08-19T14:10:58;24.60;99.90
8539;DHT22;4307;53.868;11.680;2022-08-19T14:13:24;24.60;99.90
8539;DHT22;4307;53.868;11.680;2022-08-19T14:15:52;24.70;99.90
8539;DHT22;4307;53.868;11.680;2022-08-19T14:18:20;24.80;99.90
8539;DHT22;4307;53.868;11.680;2022-08-19T14:20:47;24.80;99.90
8539;DHT22;4307;53.868;11.680;2022-08-19T14:23:15;24.80;99.90
8539;DHT22;4307;53.868;11.680;2022-08-19T14:25:42;24.90;99.90
8539;DHT22;4307;53.868;11.680;2022-08-19T14:28:09;24.90;99.90
8539;DHT22;4307;53.868;11.680;2022-08-19T14:30:37;25.00;99.90
8539;DHT22;4307;53.868;11.680;2022-08-19T14:33:06;25.00;99.90
8539;DHT22;4307;53.868;11.680;2022-08-19T14:35:34;25.00;99.90
8539;DHT22;4307;53.868;11.680;2022-08-19T14:38:01;25.00;99.90
8539;DHT22;4307;53.868;11.680;2022-08-19T14:40:30;25.00;99.90
8539;DHT22;4307;53.868;11.680;2022-08-19T14:42:59;24.90;99.90
8539;DHT22;4307;53.868;11.680;2022-08-19T14:45:30;24.90;99.90
8539;DHT22;4307;53.868;11.680;2022-08-19T14:47:57;24.90;99.90
8539;DHT22;4307;53.868;11.680;2022-08-19T14:50:26;24.90;99.90
8539;DHT22;4307;53.868;11.680;2022-08-19T14:52:58;24.80;99.90
8539;DHT22;4307;53.868;11.680;2022-08-19T14:55:25;24.80;99.90
8539;DHT22;4307;53.868;11.680;2022-08-19T14:57:52;24.80;99.90
8539;DHT22;4307;53.868;11.680;2022-08-19T15:00:19;24.70;99.90
8539;DHT22;4307;53.868;11.680;2022-08-19T15:02:46;24.70;99.90
8539;DHT22;4307;53.868;11.680;2022-08-19T15:05:13;24.60;99.90
8539;DHT22;4307;53.868;11.680;2022-08-19T15:07:41;24.60;99.90
8539;DHT22;4307;53.868;11.680;2022-08-19T15:10:09;24.50;99.90
8539;DHT22;4307;53.868;11.680;2022-08-19T15:12:37;24.50;99.90
8539;DHT22;4307;53.868;11.680;2022-08-19T15:15:06;24.50;99.90
8539;DHT22;4307;53.868;11.680;2022-08-19T15:17:33;24.50;99.90
8539;DHT22;4307;53.868;11.680;2022-08-19T15:20:03;24.50;99.90
8539;DHT22;4307;53.868;11.680;2022-08-19T15:22:30;24.50;99.90
8539;DHT22;4307;53.868;11.680;2022-08-19T15:24:58;24.50;99.90
8539;DHT22;4307;53.868;11.680;2022-08-19T15:27:26;24.50;99.90
8539;DHT22;4307;53.868;11.680;2022-08-19T15:29:53;24.50;99.90
8539;DHT22;4307;53.868;11.680;2022-08-19T15:32:20;24.50;99.90
8539;DHT22;4307;53.868;11.680;2022-08-19T15:34:46;24.40;99.90
8539;DHT22;4307;53.868;11.680;2022-08-19T15:37:14;24.40;99.90
8539;DHT22;4307;53.868;11.680;2022-08-19T15:39:41;24.40;99.90
8539;DHT22;4307;53.868;11.680;2022-08-19T15:42:09;24.30;99.90
8539;DHT22;4307;53.868;11.680;2022-08-19T15:44:35;24.30;99.90
8539;DHT22;4307;53.868;11.680;2022-08-19T15:47:02;24.20;99.90
8539;DHT22;4307;53.868;11.680;2022-08-19T15:49:29;24.20;99.90
8539;DHT22;4307;53.868;11.680;2022-08-19T15:51:55;24.20;99.90